Lake George, NY (12845)

11:58 AM EST on January 18, 2017 (GMT -0500)
Pickle Hill | | Change Station

Elev 384 ft 43.41 °N, 73.63 °W | Updated 16 seconds ago

Overcast
Overcast
34.9 °F
Feels Like 35 °F
N
0.0
Wind Variable Wind from NW
Gusts 0.0 mph

Today
High -- | Low -- °F
--% Chance of Precip.
Yesterday
High -- | Low -- °F
Precip. -- in
Pressure 29.98 in
Visibility 4.0 miles
Clouds Scattered Clouds 300 ft
Mostly Cloudy 2400 ft
Overcast 3000 ft
Windchill 35 °F
Dew Point 34 °F
Humidity 98%
Rainfall 0.00 in
Snow Depth Not available.
7:22 AM 4:48 PM
Waning Gibbous, 62% visible
METAR KGFL 181653Z AUTO 00000KT 4SM BR SCT003 BKN024 OVC030 02/00 A2995 RMK AO2 SLP150 T00220000
Pressure 29.98 in
Visibility 4.0 miles
Clouds Scattered Clouds 300 ft
Mostly Cloudy 2400 ft
Overcast 3000 ft
Windchill 35 °F
Dew Point 34 °F
Humidity 98%
Rainfall 0.00 in
Snow Depth Not available.
7:22 AM 4:48 PM
Waning Gibbous, 62% visible
METAR KGFL 181653Z AUTO 00000KT 4SM BR SCT003 BKN024 OVC030 02/00 A2995 RMK AO2 SLP150 T00220000

Get Your Daily Forecast Email!

Thanks for signing up!

Be on the lookout for a verification email in your inbox.

You'll start receiving the daily forecast at 8 AM.

×

10-Day Weather Forecast

Almanac

Astronomy

Jan. 18, 2017 Rise Set
Actual Time
Civil Twilight
Nautical Twilight
Astronomical Twilight
Moon
Length of Visible Light
Length of Day
Tomorrow will be .
, % of the Moon is Illuminated

Today's Extremes

State Highs State Lows

Community

WunderPhotos

Upload Photos

1,962,540 photos uploaded!

WunderBlog® & News

Nearby

Air Quality

  Air Quality AQ Index Pollutant
Not available.

Snow Depth

Station Depth Elevation

Earthquake Activity

City Distance Mag. Time & Date
Minimum magnitude displayed is 2.5.

Coastal Water Temperatures

Place Temperature

Stations

Nearby Weather Stations

Station Location Temp. Windchill Dew Point Humidity Wind Precip. Elev Updated Type
                   

Watches & Warnings

There are currently no watches in effect.